• Join FlightAware (Why Join?)
  • Login
  • US Flag 
07:49PM EDT


 

Airport Tracker/Info


-or-


 

Live Flight TrackerFlight Track Log ✈ N3738B ✈ 01-May-2013 ✈ KPHX - KMEM

Flight Track Log - Related Links

Times and Time Zones

All times are in EDT time to prevent confusion due to time zone crossing. See the N3738B flight status page for this flight to view local times or setup timezone preferences in your user account.

Time Position Orientation Groundspeed Altitude Reporting Facility
EDT Latitude Longitude Course Direction KTS MPH feet Rate Location/Type
11:18AM 33.4333 -111.9833 83° East 197 227 1,900  Level Phoenix TRACON
11:19AM 33.4333 -111.9167 90° East 221 254 3,300 1,620 Climbing Phoenix TRACON
11:20AM 33.4375 -111.8933 78° East 237 273 3,900 2,580 Climbing Albuquerque Center
11:21AM 33.4720 -111.5442 81° East  Level FlightAware Approximate
11:21AM 33.4225 -111.8044 101° East 277 319 6,900  Level Albuquerque Center
11:22AM 33.4928 -111.3926 81° East  Level FlightAware Approximate
11:22AM 33.4353 -111.7100 81° East 297 342 9,600  Level Albuquerque Center
11:23AM 33.5134 -111.2408 81° East  Level FlightAware Approximate
11:23AM 33.4569 -111.6039 76° East 336 387 10,900  Level Albuquerque Center
11:24AM 33.5296 -111.0883 83° East  Level FlightAware Approximate
11:24AM 33.4822 -111.4761 77° East 396 456 12,600  Level Albuquerque Center
11:25AM 33.5097 -111.3119 79° East 419 482 15,700 2,400 Climbing Albuquerque Center
11:26AM 33.5250 -111.1700 83° East 432 497 17,600 1,980 Climbing Albuquerque Center
11:27AM 33.5414 -111.0225 82° East 447 514 19,900 2,100 Climbing Albuquerque Center
11:28AM 33.5628 -110.8733 80° East 452 520 22,000 1,560 Climbing Albuquerque Center
11:29AM 33.6089 -110.7328 68° East 454 522 23,200 1,380 Climbing Albuquerque Center
11:30AM 33.6656 -110.5547 69° East 466 536 24,900 1,380 Climbing Albuquerque Center
11:31AM 33.7147 -110.4019 69° East 478 550 26,100 1,200 Climbing Albuquerque Center
11:32AM 33.7628 -110.2472 69° East 488 562 27,400 1,320 Climbing Albuquerque Center
11:33AM 33.8128 -110.0919 69° East 496 571 28,900 1,500 Climbing Albuquerque Center
11:34AM 33.8639 -109.9358 68° East 502 578 30,500 1,620 Climbing Albuquerque Center
11:35AM 33.9217 -109.7528 69° East 495 570 32,300 1,500 Climbing Albuquerque Center
11:36AM 33.9689 -109.6011 69° East 490 564 33,600 1,020 Climbing Albuquerque Center
11:37AM 34.0161 -109.4508 69° East 485 558 34,500 900 Climbing Albuquerque Center
11:38AM 34.0636 -109.2981 69° East 487 560 35,500 840 Climbing Albuquerque Center
11:39AM 34.1114 -109.1469 69° East 486 559 36,300 720 Climbing Albuquerque Center
11:40AM 34.1581 -108.9931 70° East 489 563 37,000 300 Climbing Albuquerque Center
11:41AM 34.1792 -108.7958 83° East 496 571 37,000  Level Albuquerque Center
11:42AM 34.1964 -108.6328 83° East 495 570 37,000  Level Albuquerque Center
11:43AM 34.2117 -108.4706 83° East 491 565 37,000  Level Albuquerque Center
11:44AM 34.2267 -108.3064 84° East 493 567 37,000 -60 Level Albuquerque Center
11:45AM 34.2422 -108.1219 84° East 495 570 36,900  Descending Albuquerque Center
11:47AM 34.2567 -107.9569 84° East 494 568 37,000  Climbing Albuquerque Center
11:48AM 34.2719 -107.7917 84° East 494 568 36,900  Descending Albuquerque Center
11:49AM 34.2869 -107.6258 84° East 495 570 37,000  Climbing Albuquerque Center
11:50AM 34.3017 -107.4592 84° East 498 573 37,000  Level Albuquerque Center
11:51AM 34.3172 -107.2878 84° East 493 567 37,000  Level Albuquerque Center
11:52AM 34.3342 -107.0900 84° East 495 570 37,000  Level Albuquerque Center
11:53AM 34.3475 -106.9289 84° East 490 564 37,000  Level Albuquerque Center
11:54AM 34.3603 -106.7644 85° East 492 566 37,000  Level Albuquerque Center
11:55AM 34.3733 -106.6014 84° East 491 565 37,000  Level Albuquerque Center
11:56AM 34.3867 -106.4394 84° East 490 564 37,000  Level Albuquerque Center
11:57AM 34.3989 -106.2769 85° East 488 562 37,000  Level Albuquerque Center
11:58AM 34.4133 -106.0783 85° East 482 555 37,000  Level Albuquerque Center
11:59AM 34.4256 -105.9125 85° East 487 560 37,000  Level Albuquerque Center
12:00PM 34.4386 -105.7497 84° East 485 558 37,000  Level Albuquerque Center
12:01PM 34.4508 -105.5856 85° East 485 558 37,000  Level Albuquerque Center
12:02PM 34.4611 -105.4208 86° East 487 560 37,000  Level Albuquerque Center
12:03PM 34.4725 -105.2561 85° East 487 560 37,000  Level Albuquerque Center
12:04PM 34.4847 -105.0908 85° East 488 562 37,000  Level Albuquerque Center
12:05PM 34.4983 -104.9008 85° East 485 558 37,000  Level Albuquerque Center
12:06PM 34.5086 -104.7400 86° East 479 551 37,000  Level Albuquerque Center
12:07PM 34.5194 -104.5778 85° East 480 552 37,000  Level Albuquerque Center
12:08PM 34.5303 -104.4153 85° East 481 554 37,000  Level Albuquerque Center
12:09PM 34.5397 -104.2525 86° East 482 555 37,000  Level Albuquerque Center
12:10PM 34.5489 -104.0925 86° East 477 549 37,000  Level Albuquerque Center
12:11PM 34.5606 -103.9061 86° East 475 547 37,000  Level Albuquerque Center
12:12PM 34.5697 -103.7464 86° East 474 545 37,000  Level Albuquerque Center
12:13PM 34.5786 -103.5886 86° East 469 540 37,000  Level Albuquerque Center
12:14PM 34.5872 -103.4286 86° East 472 543 37,000  Level Albuquerque Center
12:15PM 34.5958 -103.2672 86° East 475 547 37,000  Level Albuquerque Center
12:16PM 34.6044 -103.1061 86° East 476 548 37,000  Level Albuquerque Center
12:18PM 34.6144 -102.9181 86° East 476 548 37,000  Level Albuquerque Center
12:19PM 34.6217 -102.7564 87° East 477 549 37,000  Level Albuquerque Center
12:20PM 34.6289 -102.6089 87° East 476 548 37,000  Level Albuquerque Center
12:21PM 34.6356 -102.4497 87° East 475 547 37,000  Level Albuquerque Center
12:22PM 34.6447 -102.2589 87° East 475 547 37,000  Level Albuquerque Center
12:23PM 34.6517 -102.0997 87° East 474 545 37,000  Level Albuquerque Center
12:24PM 34.6586 -101.9394 87° East 478 550 37,000  Level Albuquerque Center
12:25PM 34.6650 -101.7811 87° East 476 548 37,000  Level Albuquerque Center
12:26PM 34.6717 -101.6231 87° East 473 544 37,000  Level Albuquerque Center
12:27PM 34.6789 -101.4322 87° East 474 545 37,000  Level Albuquerque Center
12:28PM 34.6853 -101.2772 87° East 469 540 37,000  Level Albuquerque Center
12:29PM 34.6908 -101.1208 87° East 467 537 37,000  Level Albuquerque Center
12:30PM 34.6961 -100.9650 88° East 466 536 37,000  Level Albuquerque Center
12:31PM 34.7008 -100.8081 88° East 467 537 37,000  Level Albuquerque Center
12:32PM 34.7075 -100.6194 87° East 468 539 37,000  Level Albuquerque Center
12:33PM 34.7125 -100.4631 88° East 466 536 37,000  Level Albuquerque Center
12:34PM 34.7169 -100.3183 88° East 468 539 37,000  Level Albuquerque Center
12:35PM 34.7217 -100.1286 88° East 469 540 37,000  Level Albuquerque Center
12:36PM 34.7261 -99.9725 88° East 465 535 37,000  Level Albuquerque Center
12:37PM 34.7294 -99.8161 88° East 464 534 37,000  Level Albuquerque Center
12:38PM 34.7344 -99.6619 88° East 460 529 37,000  Level Albuquerque Center
12:39PM 34.7353 -99.5361 90° East 458 527 37,000  Level Fort Worth Center
12:40PM 34.7378 -99.3869 89° East 458 527 37,000  Level Fort Worth Center
12:41PM 34.7422 -99.2303 88° East 458 527 37,000  Level Fort Worth Center
12:42PM 34.7444 -99.0739 89° East 458 527 37,000  Level Fort Worth Center
12:43PM 34.7464 -98.9197 89° East 458 527 37,000  Level Fort Worth Center
12:44PM 34.7503 -98.7656 88° East 458 527 37,000  Level Fort Worth Center
12:45PM 34.7517 -98.6114 89° East 458 527 37,000  Level Fort Worth Center
12:46PM 34.7553 -98.4472 88° East 453 521 37,000  Level Fort Worth Center
12:47PM 34.7586 -98.2931 88° East 453 521 37,000  Level Fort Worth Center
12:48PM 34.7575 -98.1414 90° East 453 521 37,000  Level Fort Worth Center
12:49PM 34.7603 -97.9872 89° East 453 521 37,000  Level Fort Worth Center
12:50PM 34.7611 -97.8331 90° East 453 521 37,000  Level Fort Worth Center
12:51PM 34.7614 -97.6764 90° East 459 528 37,000  Level Fort Worth Center
12:52PM 34.7594 -97.5247 91° East 459 528 37,000  Level Fort Worth Center
12:53PM 34.7617 -97.3731 89° East 459 528 37,000  Level Fort Worth Center
12:54PM 34.7617 -97.2164 90° East 459 528 37,000  Level Fort Worth Center
12:55PM 34.7611 -97.0622 90° East 459 528 37,000  Level Fort Worth Center
12:56PM 34.7628 -96.9081 89° East 459 528 37,000  Level Fort Worth Center
12:57PM 34.7622 -96.7539 90° East 459 528 37,000  Level Fort Worth Center
12:58PM 34.7633 -96.6022 89° East 453 521 37,000  Level Fort Worth Center
12:59PM 34.7622 -96.4506 90° East 453 521 37,000  Level Fort Worth Center
01:00PM 34.7608 -96.2989 91° East 448 516 37,000  Level Fort Worth Center
01:01PM 34.7617 -96.1497 90° East 448 516 37,000  Level Fort Worth Center
01:02PM 34.7600 -95.9981 91° East 438 504 37,000  Level Fort Worth Center
01:03PM 34.7583 -95.8464 91° East 438 504 37,000  Level Fort Worth Center
01:04PM 34.7583 -95.6922 90° East 438 504 37,000  Level Fort Worth Center
01:06PM 34.7592 -95.4581 90° East 425 489 37,000  Level Memphis Center
01:07PM 34.7547 -95.3061 92° East 438 504 37,000  Level Memphis Center
01:08PM 34.7525 -95.1544 91° East 451 519 37,000  Level Memphis Center
01:09PM 34.7522 -94.9978 90° East 451 519 37,000  Level Memphis Center
01:10PM 34.7481 -94.8256 92° East 465 535 37,000  Level Memphis Center
01:11PM 34.7450 -94.6714 91° East 460 529 37,000  Level Memphis Center
01:12PM 34.7442 -94.5144 90° East 460 529 37,000  Level Memphis Center
01:13PM 34.7408 -94.3628 91° East 460 529 37,000  Level Memphis Center
01:14PM 34.7372 -94.2111 92° East 460 529 37,000  Level Memphis Center
01:15PM 34.7336 -94.0517 92° East 460 529 37,000  Level Memphis Center
01:16PM 34.7314 -93.9175 91° East 460 529 37,000 -480 Level Memphis Center
01:17PM 34.7292 -93.7658 91° East 455 524 36,100 -900 Descending Memphis Center
01:18PM 34.7250 -93.6142 92° East 450 518 35,200 -600 Descending Memphis Center
01:19PM 34.7206 -93.4650 92° East 444 511 34,900 -660 Descending Memphis Center
01:20PM 34.7178 -93.3133 91° East 444 511 33,900 -960 Descending Memphis Center
01:21PM 34.7131 -93.1639 92° East 444 511 33,000 -480 Descending Memphis Center
01:22PM 34.7078 -93.0147 92° East 438 504 33,000  Level Memphis Center
01:23PM 34.7006 -92.8631 93° East 443 510 33,000  Level Memphis Center
01:24PM 34.6972 -92.7189 92° East 437 503 33,000  Level Memphis Center
01:25PM 34.6917 -92.5647 92° East 444 511 33,000  Level Memphis Center
01:26PM 34.6881 -92.4156 92° East 439 505 33,000  Level Memphis Center
01:27PM 34.6861 -92.2664 91° East 439 505 33,000  Level Memphis Center
01:28PM 34.6717 -92.1197 97° East 438 504 33,000  Level Memphis Center
01:29PM 34.6300 -91.9522 107° East 462 532 33,000  Level Memphis Center
01:30PM 34.6047 -91.8031 102° East 448 516 33,000  Level Memphis Center
01:31PM 34.5747 -91.6764 106° East 442 509 33,000 -360 Level Memphis Center
01:32PM 34.5428 -91.5294 105° East 442 509 32,300 -1,380 Descending Memphis Center
01:33PM 34.5108 -91.3881 105° East 432 497 30,300 -2,220 Descending Memphis Center
01:34PM 34.4825 -91.2492 104° East 432 497 27,900 -2,340 Descending Memphis Center
01:35PM 34.4542 -91.1128 104° East 427 491 25,700 -2,280 Descending Memphis Center
01:36PM 34.4278 -90.9842 104° East 403 464 23,400 -2,280 Descending Memphis Center
01:37PM 34.4472 -90.8583 79° East 372 428 21,200 -2,160 Descending Memphis Center
01:38PM 34.5228 -90.7453 51° Northeast 371 427 19,100 -2,160 Descending Memphis Center
01:39PM 34.5919 -90.6472 49° Northeast 383 441 16,900 -1,560 Descending Memphis Center
01:40PM 34.6567 -90.5464 52° Northeast 377 434 16,000 -660 Descending Memphis Center
01:41PM 34.7111 -90.4633 51° Northeast 340 391 15,600 -1,080 Descending Memphis Center
01:42PM 34.7611 -90.3850 52° Northeast 305 351 13,900 -1,800 Descending Memphis Center
01:43PM 34.8133 -90.3064 51° Northeast 294 338 12,100 -1,680 Descending Memphis Center
01:44PM 34.8633 -90.2281 52° Northeast 294 338 10,600 -1,320 Descending Memphis Center
01:45PM 34.9092 -90.1569 52° Northeast 288 331 9,500 -900 Descending Memphis Center
01:46PM 34.9569 -90.1114 38° Northeast 261 300 8,900 -360 Descending Memphis Center
01:47PM 35.0167 -90.1167 356° North 242 278 8,800 -840 Descending KMEM
01:47PM 35.0833 -90.1000 12° North 237 273 7,400 -1,680 Descending KMEM
01:48PM 35.1500 -90.1000 360° North 245 282 5,700 -1,680 Descending KMEM
01:49PM 35.2167 -90.1000 360° North 244 281 4,300 -1,440 Descending KMEM
01:50PM 35.2333 -90.0333 73° East 203 234 3,000 -1,320 Descending KMEM